Time;durP1;ratioP1;P1;durP2;ratioP2;P2;SDS_P1;SDS_P2;PMS_P1;PMS_P2;Temp;Humidity;BMP_temperature;BMP_pressure;BME280_temperature;BME280_humidity;BME280_pressure;Samples;Min_cycle;Max_cycle;Signal;HPM_P1;HPM_P2
2023/05/03 00:00:12;;;;;;;8.70;4.63;;;;;;;5.22;94.51;101576.19;5015470;28;20562;-67
2023/05/03 00:02:39;;;;;;;12.20;4.70;;;;;;;5.14;94.20;101569.59;5023965;28;20729;-67
2023/05/03 00:05:11;;;;;;;7.53;3.73;;;;;;;5.08;93.90;101571.91;5026896;28;20218;-67
2023/05/03 00:07:39;;;;;;;6.83;4.30;;;;;;;5.15;92.60;101575.75;5023885;28;20201;-67
2023/05/03 00:10:07;;;;;;;8.30;4.40;;;;;;;5.16;92.41;101572.31;5020419;28;20684;-67
2023/05/03 00:12:33;;;;;;;10.60;4.30;;;;;;;5.29;91.45;101575.69;5020629;28;20219;-67
2023/05/03 00:14:59;;;;;;;9.77;4.30;;;;;;;5.45;90.32;101580.03;5021835;28;20206;-68
2023/05/03 00:17:26;;;;;;;8.50;4.70;;;;;;;5.41;90.93;101574.53;5025155;28;20211;-68
2023/05/03 00:19:55;;;;;;;10.03;4.80;;;;;;;5.34;92.80;101573.31;5016135;28;20677;-68
2023/05/03 00:22:21;;;;;;;8.97;4.93;;;;;;;5.20;94.14;101577.84;5026248;28;20222;-67
2023/05/03 00:24:49;;;;;;;8.10;4.50;;;;;;;5.05;94.29;101579.59;5020309;28;20671;-68
2023/05/03 00:27:17;;;;;;;8.83;4.43;;;;;;;4.94;95.74;101576.41;5018957;28;20549;-68
2023/05/03 00:29:44;;;;;;;8.10;4.73;;;;;;;4.91;96.06;101577.97;5024902;28;20199;-67
2023/05/03 00:32:11;;;;;;;9.80;5.60;;;;;;;4.80;96.94;101565.94;5015066;28;20232;-68
2023/05/03 00:34:37;;;;;;;7.53;4.03;;;;;;;4.68;98.46;101560.94;5017367;28;20288;-68
2023/05/03 00:37:04;;;;;;;7.97;4.53;;;;;;;4.66;99.86;101566.09;5024924;28;20231;-67
2023/05/03 00:39:31;;;;;;;9.77;5.00;;;;;;;4.66;100.00;101565.19;5021735;28;20203;-68
2023/05/03 00:41:58;;;;;;;10.03;5.10;;;;;;;4.56;100.00;101565.50;5023292;28;20219;-68
2023/05/03 00:44:25;;;;;;;10.53;4.50;;;;;;;4.53;100.00;101555.75;5024145;28;20191;-67
2023/05/03 00:46:51;;;;;;;6.93;4.23;;;;;;;4.58;100.00;101549.03;5026179;28;20200;-68
2023/05/03 00:49:18;;;;;;;8.87;5.00;;;;;;;4.52;100.00;101550.41;5015040;28;20196;-68
2023/05/03 00:51:44;;;;;;;7.47;4.37;;;;;;;4.40;100.00;101542.72;5019566;28;20227;-67
2023/05/03 00:54:11;;;;;;;7.83;4.33;;;;;;;4.33;100.00;101546.72;5025723;28;20199;-67
2023/05/03 00:56:38;;;;;;;10.00;4.37;;;;;;;4.47;100.00;101541.38;5025754;28;20199;-67
2023/05/03 00:59:17;;;;;;;10.33;4.57;;;;;;;4.55;100.00;101542.72;5029732;28;20196;-68
2023/05/03 01:01:48;;;;;;;12.17;4.93;;;;;;;4.69;100.00;101542.66;5026057;28;20282;-67
2023/05/03 01:04:15;;;;;;;6.77;4.30;;;;;;;4.55;100.00;101538.38;5031168;28;20219;-68
2023/05/03 01:06:54;;;;;;;8.30;4.43;;;;;;;4.36;100.00;101543.38;5025510;28;20256;-68
2023/05/03 01:09:45;;;;;;;10.07;4.80;;;;;;;4.31;100.00;101547.47;5026336;28;20202;-67
2023/05/03 01:12:18;;;;;;;10.77;4.70;;;;;;;4.31;100.00;101535.25;5027044;28;20273;-67
2023/05/03 01:14:57;;;;;;;9.50;4.40;;;;;;;4.32;100.00;101539.69;5026843;28;20243;-67
2023/05/03 01:17:28;;;;;;;8.83;4.40;;;;;;;4.28;100.00;101542.94;5034745;28;20664;-67
2023/05/03 01:20:00;;;;;;;9.90;4.30;;;;;;;4.19;100.00;101534.56;5030871;28;20202;-67
2023/05/03 01:22:59;;;;;;;8.17;4.17;;;;;;;3.98;100.00;101538.56;5035096;28;20212;-67
2023/05/03 01:25:26;;;;;;;9.87;5.07;;;;;;;3.97;100.00;101535.03;5037126;28;20743;-67
2023/05/03 01:27:52;;;;;;;7.03;4.30;;;;;;;3.92;100.00;101532.97;5043408;28;20203;-67
2023/05/03 01:30:22;;;;;;;9.53;5.00;;;;;;;3.86;100.00;101532.59;5033352;28;20317;-68
2023/05/03 01:32:51;;;;;;;11.70;4.77;;;;;;;3.81;100.00;101528.81;5032719;28;20240;-67
2023/05/03 01:35:41;;;;;;;11.03;4.63;;;;;;;3.86;100.00;101528.28;5036255;28;20219;-68
2023/05/03 01:38:10;;;;;;;9.60;4.80;;;;;;;3.84;100.00;101523.75;5036364;28;20203;-67
2023/05/03 01:40:44;;;;;;;8.03;4.67;;;;;;;3.94;100.00;101518.22;5034471;28;20199;-68
2023/05/03 01:43:12;;;;;;;8.73;4.70;;;;;;;3.84;100.00;101527.28;5037810;28;20222;-68
2023/05/03 01:45:39;;;;;;;8.33;4.33;;;;;;;3.74;100.00;101519.69;5030819;28;20283;-68
2023/05/03 01:48:17;;;;;;;6.97;4.50;;;;;;;3.60;100.00;101521.53;5033565;28;20202;-67
2023/05/03 01:50:44;;;;;;;8.53;4.50;;;;;;;3.71;100.00;101530.91;5035333;28;20254;-67
2023/05/03 01:53:10;;;;;;;8.57;4.77;;;;;;;3.62;100.00;101529.47;5034546;28;20250;-67
2023/05/03 01:55:37;;;;;;;10.20;4.60;;;;;;;3.61;100.00;101523.31;5044320;28;20694;-68
2023/05/03 01:58:03;;;;;;;8.97;4.90;;;;;;;3.61;100.00;101525.03;5025113;28;20201;-67
2023/05/03 02:00:30;;;;;;;9.47;4.63;;;;;;;3.59;100.00;101530.16;5035984;28;20192;-67
2023/05/03 02:02:57;;;;;;;8.03;4.53;;;;;;;3.56;100.00;101535.22;5039312;28;20286;-67
2023/05/03 02:05:24;;;;;;;6.87;4.50;;;;;;;3.44;100.00;101529.25;5043030;28;20203;-67
2023/05/03 02:07:51;;;;;;;8.70;4.80;;;;;;;3.40;100.00;101537.75;5041407;28;20206;-67
2023/05/03 02:10:17;;;;;;;14.30;4.70;;;;;;;3.36;100.00;101531.41;5029290;28;20819;-66
2023/05/03 02:12:43;;;;;;;11.13;4.60;;;;;;;3.36;100.00;101541.88;5037470;28;20269;-67
2023/05/03 02:15:11;;;;;;;12.50;4.87;;;;;;;3.27;100.00;101543.94;5037903;28;20233;-67
2023/05/03 02:17:38;;;;;;;7.23;4.60;;;;;;;3.16;100.00;101544.97;5038443;28;20196;-67
2023/05/03 02:20:05;;;;;;;9.90;4.90;;;;;;;3.01;100.00;101547.56;5035320;28;20205;-67
2023/05/03 02:22:32;;;;;;;11.43;4.93;;;;;;;2.97;100.00;101544.69;5045307;28;20223;-67
2023/05/03 02:24:58;;;;;;;8.07;4.33;;;;;;;2.96;100.00;101554.25;5033730;28;20254;-68
2023/05/03 02:27:24;;;;;;;8.90;4.43;;;;;;;2.86;100.00;101554.47;5042317;28;20198;-68
2023/05/03 02:29:51;;;;;;;9.37;4.97;;;;;;;2.80;100.00;101560.25;5038156;28;20452;-67
2023/05/03 02:32:18;;;;;;;10.00;4.77;;;;;;;2.76;100.00;101558.19;5034036;28;20247;-68
2023/05/03 02:34:47;;;;;;;12.20;5.27;;;;;;;2.81;100.00;101558.53;5040095;28;20198;-67
2023/05/03 02:37:15;;;;;;;11.00;5.13;;;;;;;2.73;100.00;101559.72;5034650;28;20225;-67
2023/05/03 02:39:41;;;;;;;10.90;5.10;;;;;;;2.69;100.00;101550.78;5038289;28;20196;-68
2023/05/03 02:42:08;;;;;;;7.30;4.60;;;;;;;2.63;100.00;101547.78;5019666;28;20217;-67
2023/05/03 02:44:34;;;;;;;9.87;5.30;;;;;;;2.57;100.00;101549.09;5038451;28;20631;-67
2023/05/03 02:47:01;;;;;;;9.30;4.90;;;;;;;2.55;100.00;101543.78;5046471;28;20200;-68
2023/05/03 02:49:27;;;;;;;11.73;4.60;;;;;;;2.50;100.00;101547.81;5041338;28;20247;-68
2023/05/03 02:51:55;;;;;;;11.73;4.93;;;;;;;2.40;100.00;101548.94;5040474;28;20227;-67
2023/05/03 02:54:24;;;;;;;11.20;5.60;;;;;;;2.31;100.00;101545.72;5040646;28;20196;-67
2023/05/03 02:56:50;;;;;;;9.83;4.77;;;;;;;2.24;100.00;101543.50;5035928;28;20213;-67
2023/05/03 02:59:17;;;;;;;8.90;4.67;;;;;;;2.21;100.00;101538.09;5038779;28;20587;-67
2023/05/03 03:01:45;;;;;;;10.37;4.50;;;;;;;2.18;100.00;101538.78;5033532;28;20211;-67
2023/05/03 03:04:11;;;;;;;11.03;5.47;;;;;;;2.16;100.00;101549.94;5010710;28;20620;-68
2023/05/03 03:06:38;;;;;;;13.77;5.37;;;;;;;2.12;100.00;101540.09;5037764;28;20194;-67
2023/05/03 03:09:04;;;;;;;9.07;4.63;;;;;;;2.05;100.00;101548.34;5038752;28;20683;-67
2023/05/03 03:11:31;;;;;;;11.00;4.80;;;;;;;2.04;100.00;101552.69;5031712;28;20241;-67
2023/05/03 03:13:57;;;;;;;12.47;5.30;;;;;;;1.98;100.00;101536.56;5039601;28;20682;-68
2023/05/03 03:16:23;;;;;;;8.43;4.73;;;;;;;2.00;100.00;101539.28;5037255;28;20214;-67
2023/05/03 03:18:50;;;;;;;11.70;4.80;;;;;;;2.00;100.00;101540.22;5030443;28;20200;-67
2023/05/03 03:21:16;;;;;;;11.83;5.23;;;;;;;2.02;100.00;101540.31;5040224;28;20209;-68
2023/05/03 03:23:43;;;;;;;9.17;5.13;;;;;;;2.00;100.00;101536.66;5036388;28;20199;-67
2023/05/03 03:26:09;;;;;;;10.20;5.27;;;;;;;2.01;100.00;101530.66;5039764;28;20199;-67
2023/05/03 03:28:35;;;;;;;9.70;5.37;;;;;;;2.02;100.00;101524.66;5030640;28;20219;-67
2023/05/03 03:31:02;;;;;;;8.53;5.20;;;;;;;2.12;100.00;101535.78;5032239;28;20296;-68
2023/05/03 03:33:28;;;;;;;13.23;5.60;;;;;;;2.34;100.00;101527.59;5026423;28;20270;-67
2023/05/03 03:35:54;;;;;;;11.23;5.93;;;;;;;2.31;100.00;101524.81;5033739;28;20633;-68
2023/05/03 03:38:21;;;;;;;9.97;5.67;;;;;;;2.53;100.00;101529.72;5031714;28;20203;-67
2023/05/03 03:40:47;;;;;;;9.03;5.40;;;;;;;2.48;100.00;101523.28;5045372;28;20231;-67
2023/05/03 03:43:13;;;;;;;9.13;5.30;;;;;;;2.42;100.00;101531.66;5036201;28;20215;-68
2023/05/03 03:45:40;;;;;;;9.40;4.90;;;;;;;2.33;100.00;101533.66;5035847;28;20200;-66
2023/05/03 03:48:06;;;;;;;10.07;4.83;;;;;;;2.30;100.00;101533.44;5044694;28;20260;-68
2023/05/03 03:50:33;;;;;;;10.73;5.43;;;;;;;2.38;100.00;101534.84;5028028;28;20202;-67
2023/05/03 03:52:59;;;;;;;11.33;5.07;;;;;;;2.40;100.00;101546.34;5039492;28;20241;-67
2023/05/03 03:55:26;;;;;;;10.53;5.17;;;;;;;2.40;100.00;101542.78;5033577;28;20683;-68
2023/05/03 03:57:52;;;;;;;10.70;5.17;;;;;;;2.41;100.00;101539.41;5041679;28;20199;-68
2023/05/03 04:00:18;;;;;;;7.23;5.00;;;;;;;2.43;100.00;101537.78;5040255;28;20230;-67
2023/05/03 04:02:45;;;;;;;11.43;4.50;;;;;;;2.35;100.00;101542.50;5024174;28;20220;-67
2023/05/03 04:05:13;;;;;;;9.77;5.40;;;;;;;2.35;100.00;101552.94;5014974;28;20261;-67
2023/05/03 04:07:41;;;;;;;9.67;4.93;;;;;;;2.41;100.00;101547.22;5042189;28;20261;-67
2023/05/03 04:10:07;;;;;;;9.63;5.50;;;;;;;2.46;100.00;101549.34;5030151;28;20228;-67
2023/05/03 04:12:34;;;;;;;12.23;5.30;;;;;;;2.45;100.00;101549.25;5023119;28;20613;-68
2023/05/03 04:15:01;;;;;;;10.10;5.53;;;;;;;2.47;100.00;101561.59;5028857;28;20198;-67
2023/05/03 04:17:28;;;;;;;12.30;5.70;;;;;;;2.51;100.00;101561.00;5028989;28;20662;-69
2023/05/03 04:19:54;;;;;;;10.90;4.90;;;;;;;2.51;100.00;101555.75;5038287;28;20596;-70
2023/05/03 04:22:21;;;;;;;8.63;5.37;;;;;;;2.54;100.00;101562.00;5032595;28;20754;-70
2023/05/03 04:24:47;;;;;;;9.50;6.10;;;;;;;2.54;100.00;101568.13;5033026;28;20190;-71
2023/05/03 04:27:13;;;;;;;11.87;5.63;;;;;;;2.58;100.00;101564.91;5026372;28;20297;-70
2023/05/03 04:29:40;;;;;;;9.57;6.00;;;;;;;2.60;100.00;101554.53;5024231;28;20719;-70
2023/05/03 04:32:07;;;;;;;12.37;5.90;;;;;;;2.62;100.00;101560.75;5051749;23;20224;-73
2023/05/03 04:34:33;;;;;;;12.23;5.93;;;;;;;2.63;100.00;101567.81;5054883;28;20688;-70
2023/05/03 04:36:59;;;;;;;10.90;6.33;;;;;;;2.67;100.00;101560.25;5050336;28;20200;-71
2023/05/03 04:39:26;;;;;;;8.70;6.03;;;;;;;2.72;100.00;101557.91;5033191;28;20677;-70
2023/05/03 04:41:52;;;;;;;12.17;5.87;;;;;;;2.79;100.00;101552.25;5047077;28;20234;-70
2023/05/03 04:44:19;;;;;;;14.27;5.80;;;;;;;2.87;100.00;101550.16;5047083;28;20250;-71
2023/05/03 04:46:46;;;;;;;12.73;5.93;;;;;;;2.93;100.00;101543.59;5052109;28;21668;-71
2023/05/03 04:49:16;;;;;;;13.87;6.50;;;;;;;3.09;100.00;101542.81;5044129;28;20204;-71
2023/05/03 04:51:42;;;;;;;13.13;6.33;;;;;;;3.22;100.00;101540.16;5050706;28;20212;-73
2023/05/03 04:54:09;;;;;;;14.00;6.17;;;;;;;3.35;100.00;101552.28;5065480;28;20239;-72
2023/05/03 04:56:35;;;;;;;12.43;6.90;;;;;;;3.52;100.00;101546.31;5048286;28;20290;-71
2023/05/03 04:59:03;;;;;;;11.17;5.93;;;;;;;3.76;100.00;101555.66;5051877;28;20198;-70
2023/05/03 05:01:29;;;;;;;10.77;5.60;;;;;;;3.95;100.00;101555.00;5045990;28;20194;-71
2023/05/03 05:03:56;;;;;;;10.47;5.50;;;;;;;3.98;100.00;101549.03;5047459;28;20224;-71
2023/05/03 05:06:22;;;;;;;12.77;5.73;;;;;;;4.12;100.00;101552.47;5042048;28;20693;-71
2023/05/03 05:08:49;;;;;;;12.10;6.00;;;;;;;4.30;100.00;101551.81;5047372;28;20199;-70
2023/05/03 05:11:16;;;;;;;12.03;6.07;;;;;;;4.41;100.00;101555.06;5038389;28;20292;-72
2023/05/03 05:13:42;;;;;;;14.73;6.30;;;;;;;4.66;100.00;101559.94;5042487;28;20791;-72
2023/05/03 05:16:08;;;;;;;11.43;6.00;;;;;;;4.79;100.00;101556.25;5059411;28;20201;-68
2023/05/03 05:18:35;;;;;;;11.93;6.63;;;;;;;5.02;100.00;101543.59;5045489;28;20623;-69
2023/05/03 05:21:02;;;;;;;11.53;5.73;;;;;;;5.21;97.07;101534.09;5040298;28;20249;-70
2023/05/03 05:23:28;;;;;;;11.03;6.07;;;;;;;5.43;94.62;101550.16;5038773;28;20230;-70
2023/05/03 05:25:59;;;;;;;11.57;6.27;;;;;;;5.77;90.81;101552.81;5040788;28;20237;-69
2023/05/03 05:28:26;;;;;;;12.33;5.93;;;;;;;5.90;89.61;101551.72;5035368;28;20209;-67
2023/05/03 05:30:53;;;;;;;10.63;5.33;;;;;;;6.22;88.08;101545.44;5044239;28;20209;-69
2023/05/03 05:33:19;;;;;;;11.17;5.33;;;;;;;7.25;83.22;101551.22;5035867;28;20222;-68
2023/05/03 05:35:47;;;;;;;10.43;5.37;;;;;;;8.99;72.98;101535.69;5041494;28;20199;-69
2023/05/03 05:38:16;;;;;;;9.63;5.00;;;;;;;9.76;69.46;101547.34;5040424;28;20202;-69
2023/05/03 05:40:43;;;;;;;10.53;5.00;;;;;;;9.65;69.53;101555.81;5043575;28;20651;-69
2023/05/03 05:43:09;;;;;;;9.27;4.50;;;;;;;9.70;68.42;101555.97;5040234;28;20211;-69
2023/05/03 05:45:35;;;;;;;6.80;5.07;;;;;;;9.28;68.64;101556.19;5042241;28;20202;-69
2023/05/03 05:48:03;;;;;;;8.60;4.97;;;;;;;8.92;70.84;101549.50;5048958;28;20201;-71
2023/05/03 05:50:30;;;;;;;6.93;4.47;;;;;;;8.85;70.58;101547.47;5032613;28;20196;-70
2023/05/03 05:52:56;;;;;;;11.73;5.00;;;;;;;9.29;69.43;101552.72;5039112;28;20274;-71
2023/05/03 05:55:23;;;;;;;7.40;4.47;;;;;;;9.28;69.70;101556.19;5040689;28;20207;-71
2023/05/03 05:57:50;;;;;;;8.50;4.53;;;;;;;9.24;69.58;101537.53;5037817;28;20226;-70
2023/05/03 06:00:17;;;;;;;9.33;5.13;;;;;;;9.17;69.29;101538.13;5036918;28;20198;-68
2023/05/03 06:02:44;;;;;;;8.30;4.83;;;;;;;8.87;70.69;101540.53;5030890;28;21042;-68
2023/05/03 06:05:11;;;;;;;8.63;4.30;;;;;;;8.68;72.08;101534.50;5036666;28;20208;-69
2023/05/03 06:07:37;;;;;;;12.03;4.70;;;;;;;8.46;71.65;101531.88;5030942;28;20647;-69
2023/05/03 06:10:04;;;;;;;9.07;4.77;;;;;;;8.47;72.14;101531.94;5039767;28;20329;-69
2023/05/03 06:12:31;;;;;;;10.00;4.63;;;;;;;8.44;71.34;101547.66;5035996;28;20220;-69
2023/05/03 06:14:57;;;;;;;11.50;4.60;;;;;;;8.40;71.75;101545.69;5042208;28;20243;-69
2023/05/03 06:17:28;;;;;;;8.13;4.63;;;;;;;8.45;71.31;101567.03;5045516;28;20205;-70
2023/05/03 06:19:55;;;;;;;5.93;4.30;;;;;;;8.49;71.94;101563.66;5039469;28;20202;-70
2023/05/03 06:22:21;;;;;;;10.87;4.63;;;;;;;8.54;71.97;101554.19;5040980;28;20306;-70
2023/05/03 06:24:48;;;;;;;8.70;4.53;;;;;;;8.59;71.72;101562.28;5042251;28;20272;-69
2023/05/03 06:27:14;;;;;;;10.27;4.83;;;;;;;8.73;71.00;101558.44;5034873;28;20202;-69
2023/05/03 06:29:43;;;;;;;10.70;4.70;;;;;;;8.85;69.32;101564.22;5034949;28;20194;-69
2023/05/03 06:32:09;;;;;;;7.70;3.97;;;;;;;9.00;67.92;101569.19;5037982;28;20240;-68
2023/05/03 06:34:36;;;;;;;9.90;4.37;;;;;;;9.03;67.31;101569.31;5037845;28;20210;-68
2023/05/03 06:37:02;;;;;;;8.87;4.13;;;;;;;9.05;67.22;101570.28;5040865;28;20262;-70
2023/05/03 06:39:29;;;;;;;7.63;3.90;;;;;;;9.17;67.16;101564.53;5039136;28;20195;-69
2023/05/03 06:41:56;;;;;;;10.20;4.20;;;;;;;9.30;66.52;101566.81;5042883;28;20258;-69
2023/05/03 06:44:22;;;;;;;6.37;3.87;;;;;;;9.41;64.53;101557.53;5034176;28;20202;-69
2023/05/03 06:46:50;;;;;;;11.90;4.73;;;;;;;9.42;64.60;101570.81;5045548;28;20209;-68
2023/05/03 06:49:16;;;;;;;10.30;4.40;;;;;;;9.40;65.16;101554.00;5037192;28;20199;-70
2023/05/03 06:51:42;;;;;;;11.23;4.33;;;;;;;9.57;64.88;101570.47;5042010;28;20237;-68
2023/05/03 06:54:09;;;;;;;17.13;4.33;;;;;;;9.67;64.17;101555.84;5041244;28;20230;-70
2023/05/03 06:56:35;;;;;;;6.33;4.20;;;;;;;9.65;63.02;101565.47;5039574;28;20196;-69
2023/05/03 06:59:02;;;;;;;9.87;4.20;;;;;;;9.94;62.30;101564.75;5036014;28;20191;-68
2023/05/03 07:01:30;;;;;;;8.97;4.17;;;;;;;10.93;58.97;101540.66;5034650;28;20253;-68
2023/05/03 07:03:56;;;;;;;12.53;3.83;;;;;;;13.08;52.47;101544.53;5046548;28;20242;-69
2023/05/03 07:06:23;;;;;;;12.57;4.43;;;;;;;15.16;43.75;101535.78;5037234;28;20290;-69
2023/05/03 07:08:51;;;;;;;7.57;4.20;;;;;;;16.56;38.68;101547.97;5043585;28;20682;-69
2023/05/03 07:11:22;;;;;;;6.67;3.80;;;;;;;17.10;36.66;101551.03;5047271;28;20222;-68
2023/05/03 07:13:50;;;;;;;9.47;3.97;;;;;;;18.23;34.92;101554.97;5036264;28;20739;-66
2023/05/03 07:16:20;;;;;;;11.50;4.10;;;;;;;18.97;33.30;101548.69;5038083;28;20231;-69
2023/05/03 07:18:47;;;;;;;16.67;3.93;;;;;;;18.71;33.01;101553.19;5048947;28;20202;-69
2023/05/03 07:21:13;;;;;;;8.63;3.93;;;;;;;17.63;34.43;101567.34;5046846;28;20662;-68
2023/05/03 07:23:40;;;;;;;6.67;3.60;;;;;;;17.11;35.54;101561.72;5039544;28;20215;-68
2023/05/03 07:26:07;;;;;;;6.07;3.70;;;;;;;17.34;34.93;101551.16;5047349;28;20335;-66
2023/05/03 07:28:33;;;;;;;7.90;4.10;;;;;;;17.72;34.66;101561.16;5036650;28;20225;-70
2023/05/03 07:31:01;;;;;;;6.20;3.43;;;;;;;18.31;33.90;101557.66;5038077;28;20200;-69
2023/05/03 07:33:28;;;;;;;6.17;3.63;;;;;;;18.38;33.40;101538.88;5035331;28;20604;-69
2023/05/03 07:35:54;;;;;;;11.23;3.63;;;;;;;18.20;33.42;101552.28;5039335;28;20605;-69
2023/05/03 07:38:21;;;;;;;8.27;3.83;;;;;;;17.55;33.78;101543.19;5042145;28;20198;-68
2023/05/03 07:40:47;;;;;;;8.23;3.73;;;;;;;17.44;34.96;101550.28;5037184;28;20199;-69
2023/05/03 07:43:15;;;;;;;9.40;4.23;;;;;;;17.50;34.89;101552.09;5034785;28;20266;-69
2023/05/03 07:45:41;;;;;;;7.57;4.03;;;;;;;17.50;35.03;101547.63;5038770;28;20195;-69
2023/05/03 07:48:08;;;;;;;8.80;4.20;;;;;;;17.47;35.36;101549.41;5046475;28;20233;-68
2023/05/03 07:50:34;;;;;;;9.90;4.07;;;;;;;17.40;35.14;101547.59;5034483;28;20206;-68
2023/05/03 07:53:01;;;;;;;10.87;4.40;;;;;;;16.92;36.75;101547.38;5030981;28;20225;-68
2023/05/03 07:55:28;;;;;;;7.90;4.63;;;;;;;15.19;38.65;101545.59;5039585;28;20202;-68
2023/05/03 07:57:58;;;;;;;9.63;4.23;;;;;;;14.51;40.88;101537.53;5049274;28;20190;-68
2023/05/03 08:00:25;;;;;;;10.77;4.30;;;;;;;13.92;42.82;101548.03;5041090;28;20199;-69
2023/05/03 08:02:52;;;;;;;6.50;4.03;;;;;;;14.35;42.73;101542.56;5049644;28;20233;-70
2023/05/03 08:05:19;;;;;;;8.33;4.33;;;;;;;13.67;43.99;101547.56;5044322;28;20206;-67
2023/05/03 08:07:46;;;;;;;7.43;4.63;;;;;;;13.39;44.05;101542.56;5036730;28;20217;-67
2023/05/03 08:10:12;;;;;;;8.83;4.10;;;;;;;13.02;44.86;101549.72;5049202;28;20222;-67
2023/05/03 08:12:38;;;;;;;7.83;4.20;;;;;;;12.82;46.35;101543.09;5047033;28;20232;-67
2023/05/03 08:15:05;;;;;;;7.60;4.10;;;;;;;12.74;46.45;101542.88;5046055;28;20199;-65
2023/05/03 08:17:39;;;;;;;10.83;4.07;;;;;;;12.75;46.67;101538.47;5049279;28;20657;-67
2023/05/03 08:20:07;;;;;;;11.40;4.17;;;;;;;12.59;46.43;101531.91;5046748;28;20229;-67
2023/05/03 08:22:35;;;;;;;7.63;4.30;;;;;;;12.72;46.50;101541.06;5048482;28;20211;-68
2023/05/03 08:25:03;;;;;;;14.93;4.30;;;;;;;12.64;46.09;101539.97;5046860;28;20248;-67
2023/05/03 08:27:30;;;;;;;9.07;4.30;;;;;;;12.88;46.29;101543.22;5041144;28;20242;-67
2023/05/03 08:29:57;;;;;;;14.53;4.43;;;;;;;12.99;45.99;101544.34;5044659;28;20317;-68
2023/05/03 08:32:23;;;;;;;6.47;4.20;;;;;;;13.16;46.02;101539.38;5040059;28;20668;-68
2023/05/03 08:34:51;;;;;;;11.17;4.20;;;;;;;13.14;45.38;101547.31;5034049;28;20577;-74
2023/05/03 08:37:17;;;;;;;10.33;4.30;;;;;;;13.30;45.54;101537.06;5035404;28;20223;-73
2023/05/03 08:39:46;;;;;;;12.20;4.73;;;;;;;13.63;44.85;101545.72;5045843;28;20193;-74
2023/05/03 08:42:12;;;;;;;9.63;4.37;;;;;;;13.92;44.49;101532.03;5045469;28;20218;-77
2023/05/03 08:44:48;;;;;;;6.87;4.10;;;;;;;14.12;43.53;101535.97;5042249;28;20293;-75
2023/05/03 08:47:15;;;;;;;8.77;4.30;;;;;;;14.05;44.12;101536.75;5043700;28;20201;-77
2023/05/03 08:49:43;;;;;;;8.77;4.70;;;;;;;14.14;43.73;101536.88;5044431;28;20198;-75
2023/05/03 08:52:12;;;;;;;6.20;4.03;;;;;;;14.26;42.18;101541.53;5042698;28;20218;-72
2023/05/03 08:54:39;;;;;;;8.97;3.90;;;;;;;14.19;42.59;101537.88;5041235;28;20225;-69
2023/05/03 08:57:12;;;;;;;7.27;4.00;;;;;;;14.34;42.55;101522.13;5043308;28;20245;-71
2023/05/03 08:59:49;;;;;;;10.43;4.20;;;;;;;14.16;42.34;101540.47;5024905;28;20290;-70
2023/05/03 09:02:16;;;;;;;6.93;4.00;;;;;;;14.06;41.29;101536.75;5037151;28;20223;-69
2023/05/03 09:04:43;;;;;;;6.30;4.27;;;;;;;14.13;42.44;101536.88;5041967;28;20194;-71
2023/05/03 09:07:11;;;;;;;5.77;3.87;;;;;;;14.36;42.55;101533.69;5043908;28;20202;-72
2023/05/03 09:09:38;;;;;;;8.37;4.10;;;;;;;14.73;42.23;101529.88;5041926;28;20758;-71
2023/05/03 09:12:04;;;;;;;9.93;4.23;;;;;;;14.88;40.97;101518.53;5043068;28;20298;-70
2023/05/03 09:14:41;;;;;;;6.70;3.93;;;;;;;14.86;41.00;101522.97;5045149;28;20651;-69
2023/05/03 09:17:15;;;;;;;7.93;4.40;;;;;;;15.13;40.07;101518.84;5038601;28;20698;-68
2023/05/03 09:19:59;;;;;;;7.10;4.10;;;;;;;15.36;39.53;101518.28;5049264;28;20553;-68
2023/05/03 09:22:29;;;;;;;9.90;4.30;;;;;;;15.33;39.59;101515.56;5041434;28;20566;-70
2023/05/03 09:24:58;;;;;;;7.70;3.97;;;;;;;15.42;39.41;101516.56;5046894;28;20245;-70
2023/05/03 09:27:26;;;;;;;7.80;3.80;;;;;;;15.56;38.77;101514.91;5049357;28;20298;-69
2023/05/03 09:29:53;;;;;;;9.73;4.37;;;;;;;15.40;38.22;101516.53;5048776;28;20276;-70
2023/05/03 09:32:24;;;;;;;7.30;3.87;;;;;;;15.52;38.89;101514.00;5041189;28;20277;-68
2023/05/03 09:34:50;;;;;;;7.43;3.80;;;;;;;15.68;39.40;101501.75;5046398;28;20199;-69
2023/05/03 09:37:34;;;;;;;17.13;4.57;;;;;;;15.81;38.72;101498.31;5049821;28;20581;-68
2023/05/03 09:40:06;;;;;;;9.43;4.40;;;;;;;15.75;38.38;101502.72;5045149;28;20191;-71
2023/05/03 09:42:33;;;;;;;9.87;4.30;;;;;;;15.82;38.59;101500.09;5045260;28;20212;-69
2023/05/03 09:44:59;;;;;;;7.53;4.07;;;;;;;15.53;37.45;101489.09;5042066;28;20819;-68
2023/05/03 09:47:27;;;;;;;9.10;3.80;;;;;;;15.61;37.84;101491.91;5049377;28;20200;-70
2023/05/03 09:49:57;;;;;;;7.13;3.63;;;;;;;15.18;37.60;101494.00;5049745;28;20198;-69
2023/05/03 09:52:28;;;;;;;9.03;4.50;;;;;;;15.21;39.62;101482.47;5043595;28;20333;-70
2023/05/03 09:54:54;;;;;;;7.57;4.17;;;;;;;14.93;40.25;101483.94;5047636;28;20199;-69
2023/05/03 09:57:21;;;;;;;7.57;4.20;;;;;;;15.21;40.87;101487.81;5043764;28;20199;-69
2023/05/03 09:59:49;;;;;;;8.37;3.90;;;;;;;15.34;40.50;101476.44;5048225;28;20207;-67
2023/05/03 10:02:16;;;;;;;9.07;4.10;;;;;;;15.52;39.68;101484.63;5046078;28;20219;-69
2023/05/03 10:04:50;;;;;;;8.27;4.33;;;;;;;15.63;39.29;101476.78;5048348;28;20198;-70
2023/05/03 10:07:17;;;;;;;7.10;4.53;;;;;;;15.77;38.74;101472.47;5047197;28;20195;-68
2023/05/03 10:09:46;;;;;;;9.03;3.87;;;;;;;15.94;39.49;101478.84;5042700;28;20195;-71
2023/05/03 10:12:16;;;;;;;11.60;4.53;;;;;;;16.12;39.37;101479.91;5045600;28;20222;-71
2023/05/03 10:14:45;;;;;;;10.73;4.23;;;;;;;16.30;38.60;101488.94;5047007;28;20195;-69
2023/05/03 10:17:25;;;;;;;7.20;4.13;;;;;;;16.29;38.21;101489.81;5037519;28;20667;-68
2023/05/03 10:20:35;;;;;;;9.50;4.43;;;;;;;16.35;38.41;101478.28;5046139;28;20213;-70
2023/05/03 10:23:05;;;;;;;7.43;4.30;;;;;;;16.52;38.88;101489.13;5040221;28;20207;-70
2023/05/03 10:25:33;;;;;;;8.37;4.23;;;;;;;16.49;37.81;101499.78;5045948;28;20649;-69
2023/05/03 10:28:08;;;;;;;15.07;5.10;;;;;;;16.15;39.26;101485.25;5045478;28;20582;-69
2023/05/03 10:30:36;;;;;;;6.70;4.27;;;;;;;16.06;38.93;101487.88;5043296;28;20758;-70
2023/05/03 10:33:08;;;;;;;10.20;4.60;;;;;;;16.20;38.38;101480.84;5054533;23;20216;-70
2023/05/03 10:35:38;;;;;;;8.37;4.00;;;;;;;16.38;39.22;101477.41;5007845;28;20242;-71
2023/05/03 10:38:25;;;;;;;8.47;4.60;;;;;;;16.24;37.52;101469.28;5043270;28;20218;-70
2023/05/03 10:40:55;;;;;;;6.10;4.30;;;;;;;16.30;38.73;101470.22;5026754;28;20207;-71
2023/05/03 10:43:31;;;;;;;7.97;4.13;;;;;;;16.48;37.44;101466.81;5033351;28;20669;-70
2023/05/03 10:46:05;;;;;;;5.27;3.80;;;;;;;16.51;37.64;101465.94;5044056;28;20194;-72
2023/05/03 10:48:33;;;;;;;8.37;4.27;;;;;;;16.70;38.81;101465.19;5037985;28;20282;-70
2023/05/03 10:51:29;;;;;;;11.10;4.10;;;;;;;16.77;38.54;101463.41;5044153;28;20210;-76
2023/05/03 10:53:55;;;;;;;6.70;3.90;;;;;;;16.77;38.04;101461.63;5043909;28;20248;-72
2023/05/03 10:56:22;;;;;;;10.93;5.00;;;;;;;17.01;36.91;101462.66;5044947;28;20199;-74
2023/05/03 10:58:50;;;;;;;7.73;3.83;;;;;;;17.08;36.92;101459.09;5044512;28;20233;-69
2023/05/03 11:01:17;;;;;;;9.20;3.70;;;;;;;17.14;37.33;101459.13;5040502;28;20246;-69
2023/05/03 11:04:04;;;;;;;5.97;3.53;;;;;;;17.14;35.72;101453.78;5045479;28;20234;-70
2023/05/03 11:06:35;;;;;;;8.00;4.43;;;;;;;17.11;35.65;101443.06;5030012;28;20194;-68
2023/05/03 11:09:08;;;;;;;6.57;3.80;;;;;;;17.33;35.85;101449.41;5043496;28;20202;-69
2023/05/03 11:11:38;;;;;;;9.73;3.80;;;;;;;17.31;35.97;101432.44;5046911;28;20221;-73
2023/05/03 11:14:06;;;;;;;5.40;3.60;;;;;;;17.41;35.43;101427.09;5040494;28;20215;-70
2023/05/03 11:16:32;;;;;;;5.87;3.60;;;;;;;17.44;34.88;101437.81;5042156;28;20308;-67
2023/05/03 11:19:02;;;;;;;4.70;3.60;;;;;;;17.49;35.00;101428.00;5045321;28;20203;-67
2023/05/03 11:21:29;;;;;;;6.37;3.70;;;;;;;17.61;34.63;101431.56;5047735;28;20226;-69
2023/05/03 11:23:57;;;;;;;5.83;3.67;;;;;;;17.76;33.51;101424.50;5044485;28;20757;-68
2023/05/03 11:26:25;;;;;;;4.83;3.63;;;;;;;17.76;34.31;101418.25;5042463;28;20204;-71
2023/05/03 11:28:52;;;;;;;7.80;3.67;;;;;;;17.86;35.37;101422.72;5025045;28;20252;-67